createdAt,value
2018-10-11T00:03:05.393Z,13.50
2018-10-11T00:08:08.796Z,13.40
2018-10-11T00:13:11.791Z,13.40
2018-10-11T00:18:14.768Z,13.50
2018-10-11T00:23:17.777Z,13.60
2018-10-11T00:28:20.753Z,13.40
2018-10-11T00:33:23.695Z,13.20
2018-10-11T00:38:26.772Z,13.20
2018-10-11T00:43:29.896Z,13.10
2018-10-11T00:48:32.950Z,13.10
2018-10-11T00:53:35.915Z,13.00
2018-10-11T00:58:38.924Z,12.80
2018-10-11T01:03:41.876Z,12.90
2018-10-11T01:08:44.840Z,13.00
2018-10-11T01:13:47.924Z,13.10
2018-10-11T01:18:50.892Z,13.30
2018-10-11T01:23:53.977Z,13.30
2018-10-11T01:28:56.867Z,13.30
2018-10-11T01:33:59.820Z,13.20
2018-10-11T01:39:05.702Z,13.00
2018-10-11T01:44:09.362Z,12.70
2018-10-11T01:49:12.493Z,12.60
2018-10-11T01:54:15.497Z,12.40
2018-10-11T01:59:18.532Z,12.30
2018-10-11T02:04:21.520Z,12.30
2018-10-11T02:09:24.562Z,12.80
2018-10-11T02:14:27.500Z,12.80
2018-10-11T02:19:30.487Z,12.70
2018-10-11T02:24:33.977Z,12.50
2018-10-11T02:29:36.976Z,12.40
2018-10-11T02:34:40.542Z,12.30
2018-10-11T02:39:43.583Z,12.00
2018-10-11T02:44:46.578Z,11.80
2018-10-11T02:49:49.563Z,11.80
2018-10-11T02:54:52.644Z,11.80
2018-10-11T02:59:55.691Z,11.70
2018-10-11T03:04:58.747Z,11.70
2018-10-11T03:10:02.260Z,11.80
2018-10-11T03:15:05.495Z,11.80
2018-10-11T03:20:08.523Z,11.70
2018-10-11T03:25:11.523Z,11.70
2018-10-11T03:30:14.531Z,11.50
2018-10-11T03:35:17.509Z,11.60
2018-10-11T03:40:20.480Z,11.90
2018-10-11T03:45:23.491Z,12.10
2018-10-11T03:50:26.939Z,12.20
2018-10-11T03:55:29.907Z,12.20
2018-10-11T04:00:33.023Z,12.20
2018-10-11T04:05:36.023Z,12.20
2018-10-11T04:10:39.015Z,12.10
2018-10-11T04:15:42.235Z,12.10
2018-10-11T04:20:45.164Z,12.20
2018-10-11T04:25:48.346Z,12.10
2018-10-11T04:30:51.313Z,11.90
2018-10-11T04:35:54.703Z,11.90
2018-10-11T04:40:57.665Z,12.00
2018-10-11T04:46:01.660Z,12.00
2018-10-11T04:51:04.643Z,11.90
2018-10-11T04:56:07.863Z,11.80
2018-10-11T05:01:10.819Z,11.50
2018-10-11T05:06:13.798Z,11.70
2018-10-11T05:11:17.144Z,11.90
2018-10-11T05:16:20.208Z,11.20
2018-10-11T05:21:23.192Z,11.50
2018-10-11T05:26:26.217Z,11.90
2018-10-11T05:31:29.851Z,11.80
2018-10-11T05:36:32.867Z,11.90
2018-10-11T05:41:36.680Z,11.80
2018-10-11T05:46:39.797Z,11.80
2018-10-11T05:51:42.875Z,11.90
2018-10-11T05:56:46.496Z,12.30
2018-10-11T06:01:49.472Z,12.20
2018-10-11T06:06:52.564Z,12.20
2018-10-11T06:11:56.619Z,12.40
2018-10-11T06:16:59.623Z,12.30
2018-10-11T06:22:03.252Z,12.40
2018-10-11T06:27:06.589Z,12.30
2018-10-11T06:32:09.631Z,12.40
2018-10-11T06:37:12.639Z,12.70
2018-10-11T06:42:15.871Z,13.70
2018-10-11T06:47:19.707Z,14.40
2018-10-11T06:52:22.824Z,15.10
2018-10-11T06:57:25.796Z,15.20
2018-10-11T07:02:28.819Z,15.30
2018-10-11T07:07:31.796Z,16.10
2018-10-11T07:12:34.968Z,17.10
2018-10-11T07:17:37.964Z,16.40
2018-10-11T07:22:41.070Z,16.50
2018-10-11T07:27:44.247Z,16.80
2018-10-11T07:32:47.215Z,17.10
2018-10-11T07:37:50.200Z,16.80
2018-10-11T07:42:53.159Z,17.20
2018-10-11T07:47:56.440Z,17.50
2018-10-11T07:52:59.473Z,17.40
2018-10-11T07:58:04.260Z,17.50
2018-10-11T08:03:07.291Z,17.70
2018-10-11T08:08:10.308Z,17.90
2018-10-11T08:13:13.370Z,17.80
2018-10-11T08:18:16.392Z,17.60
2018-10-11T08:23:19.446Z,18.20
2018-10-11T08:28:22.435Z,18.70
2018-10-11T08:33:25.426Z,19.00
2018-10-11T08:38:28.477Z,19.00
2018-10-11T08:43:31.477Z,18.90
2018-10-11T08:48:34.397Z,18.90
2018-10-11T08:53:37.471Z,18.80
2018-10-11T08:58:40.405Z,19.20
2018-10-11T09:03:43.579Z,19.20
2018-10-11T09:08:46.425Z,19.00
2018-10-11T09:13:49.403Z,19.10
2018-10-11T09:18:52.408Z,18.90
2018-10-11T09:23:55.440Z,18.80
2018-10-11T09:28:58.418Z,19.10
2018-10-11T09:34:02.178Z,18.80
2018-10-11T09:39:07.637Z,18.60
2018-10-11T09:44:10.578Z,18.60
2018-10-11T09:49:13.505Z,18.80
2018-10-11T09:54:16.414Z,18.70
2018-10-11T09:59:19.280Z,18.80
2018-10-11T10:04:22.164Z,18.80
2018-10-11T10:09:25.599Z,18.90
2018-10-11T10:14:28.698Z,19.00
2018-10-11T10:19:31.630Z,19.00
2018-10-11T10:24:35.532Z,19.10
2018-10-11T10:29:38.449Z,19.20
2018-10-11T10:34:41.377Z,19.30
2018-10-11T10:39:44.367Z,19.30
2018-10-11T10:44:47.301Z,19.40
2018-10-11T10:49:50.193Z,19.30
2018-10-11T10:54:53.159Z,19.40
2018-10-11T10:59:56.084Z,19.50
2018-10-11T11:04:59.120Z,19.60
2018-10-11T11:10:05.047Z,19.50
2018-10-11T11:15:08.043Z,19.70
2018-10-11T11:20:11.011Z,19.80
2018-10-11T11:25:14.104Z,19.90
2018-10-11T11:30:17.008Z,20.00
2018-10-11T11:35:20.062Z,20.00
2018-10-11T11:40:23.059Z,20.00
2018-10-11T11:45:26.104Z,20.30
2018-10-11T11:50:29.065Z,20.20
2018-10-11T11:55:31.973Z,20.40
2018-10-11T12:00:35.058Z,20.50
2018-10-11T12:05:37.986Z,20.60
2018-10-11T12:10:40.915Z,20.50
2018-10-11T12:15:44.345Z,20.70
2018-10-11T12:20:47.393Z,21.10
2018-10-11T12:25:50.414Z,21.10
2018-10-11T12:30:53.338Z,21.30
2018-10-11T12:35:56.334Z,21.40
2018-10-11T12:41:00.046Z,21.10
2018-10-11T12:46:04.307Z,20.90
2018-10-11T12:51:07.344Z,20.80
2018-10-11T12:56:10.280Z,21.00
2018-10-11T13:01:16.353Z,21.40
2018-10-11T13:06:16.187Z,21.60
2018-10-11T13:11:19.103Z,22.10
2018-10-11T13:16:22.037Z,22.10
2018-10-11T13:21:24.992Z,22.00
2018-10-11T13:26:28.005Z,21.90
2018-10-11T13:31:31.028Z,22.10
2018-10-11T13:36:34.022Z,21.90
2018-10-11T13:41:37.227Z,21.70
2018-10-11T13:46:40.144Z,21.80
2018-10-11T13:51:43.196Z,21.70
2018-10-11T13:56:52.268Z,21.40
2018-10-11T14:01:49.324Z,21.40
2018-10-11T14:06:52.385Z,21.30
2018-10-11T14:11:55.404Z,21.30
2018-10-11T14:16:58.422Z,21.40
2018-10-11T14:22:02.117Z,21.50
2018-10-11T14:27:05.235Z,21.80
2018-10-11T14:32:08.255Z,22.00
2018-10-11T14:37:11.421Z,22.00
2018-10-11T14:42:14.284Z,21.90
2018-10-11T14:47:17.279Z,21.90
2018-10-11T14:52:20.279Z,21.80
2018-10-11T14:57:23.335Z,21.60
2018-10-11T15:02:26.467Z,21.50
2018-10-11T15:07:29.673Z,21.20
2018-10-11T15:12:32.998Z,21.00
2018-10-11T15:17:36.079Z,20.90
2018-10-11T15:22:39.026Z,20.80
2018-10-11T15:27:42.032Z,20.80
2018-10-11T15:32:45.122Z,20.90
2018-10-11T15:37:48.829Z,20.80
2018-10-11T15:42:51.980Z,20.70
2018-10-11T15:47:54.994Z,20.50
2018-10-11T15:52:58.025Z,20.30
2018-10-11T15:58:02.228Z,20.20
2018-10-11T16:03:05.380Z,20.10
2018-10-11T16:08:08.348Z,19.90
2018-10-11T16:13:11.551Z,19.90
2018-10-11T16:18:14.585Z,19.80
2018-10-11T16:23:17.747Z,19.80
2018-10-11T16:28:20.798Z,19.80
2018-10-11T16:33:23.988Z,19.70
2018-10-11T16:38:27.033Z,19.70
2018-10-11T16:43:30.081Z,19.60
2018-10-11T16:48:33.491Z,19.50
2018-10-11T16:53:36.513Z,19.40
2018-10-11T16:58:39.568Z,19.20
2018-10-11T17:03:42.649Z,19.20
2018-10-11T17:08:45.704Z,19.00
2018-10-11T17:13:48.832Z,19.00
2018-10-11T17:18:51.881Z,18.90
2018-10-11T17:23:54.828Z,18.90
2018-10-11T17:28:57.828Z,18.80
2018-10-11T17:34:02.617Z,18.70
2018-10-11T17:39:08.370Z,18.60
2018-10-11T17:44:11.370Z,18.50
2018-10-11T17:49:14.331Z,18.50
2018-10-11T17:54:17.250Z,18.50
2018-10-11T17:59:20.218Z,18.40
2018-10-11T18:04:23.215Z,18.40
2018-10-11T18:09:26.212Z,18.30
2018-10-11T18:14:29.250Z,18.20
2018-10-11T18:19:32.382Z,18.10
2018-10-11T18:24:35.308Z,18.00
2018-10-11T18:29:38.273Z,18.00
2018-10-11T18:34:41.525Z,17.90
2018-10-11T18:39:44.557Z,17.90
2018-10-11T18:44:47.557Z,17.80
2018-10-11T18:49:50.764Z,17.70
2018-10-11T18:54:53.752Z,17.50
2018-10-11T18:59:56.785Z,17.40
2018-10-11T19:04:59.826Z,17.30
2018-10-11T19:10:05.560Z,17.20
2018-10-11T19:15:08.788Z,17.10
2018-10-11T19:20:11.922Z,17.00
2018-10-11T19:25:15.014Z,16.90
2018-10-11T19:30:18.177Z,16.90
2018-10-11T19:35:21.289Z,16.90
2018-10-11T19:40:24.412Z,16.80
2018-10-11T19:45:27.792Z,16.70
2018-10-11T19:50:30.765Z,16.50
2018-10-11T19:55:33.903Z,16.30
2018-10-11T20:00:36.939Z,16.20
2018-10-11T20:05:39.932Z,16.00
2018-10-11T20:10:42.964Z,15.90
2018-10-11T20:15:45.907Z,15.70
2018-10-11T20:20:49.002Z,15.50
2018-10-11T20:25:52.264Z,15.30
2018-10-11T20:30:55.363Z,15.20
2018-10-11T20:35:58.445Z,15.10
2018-10-11T20:41:03.231Z,15.00
2018-10-11T20:46:06.887Z,14.90
2018-10-11T20:51:10.103Z,14.80
2018-10-11T20:56:13.268Z,14.80
2018-10-11T21:01:16.255Z,14.80
2018-10-11T21:06:19.256Z,14.80
2018-10-11T21:11:22.283Z,14.60
2018-10-11T21:16:25.245Z,14.60
2018-10-11T21:21:28.554Z,14.70
2018-10-11T21:26:31.625Z,14.70
2018-10-11T21:31:34.885Z,14.60
2018-10-11T21:36:37.868Z,14.50
2018-10-11T21:41:41.449Z,14.10
2018-10-11T21:46:44.442Z,13.80
2018-10-11T21:51:47.455Z,13.70
2018-10-11T21:56:50.410Z,13.70
2018-10-11T22:01:53.409Z,13.70
2018-10-11T22:06:56.370Z,13.70
2018-10-11T22:11:59.363Z,13.70
2018-10-11T22:17:03.749Z,13.60
2018-10-11T22:22:06.770Z,13.50
2018-10-11T22:27:09.889Z,13.50
2018-10-11T22:32:12.963Z,13.40
2018-10-11T22:37:16.000Z,13.40
2018-10-11T22:42:19.109Z,13.50
2018-10-11T22:47:22.347Z,13.30
2018-10-11T22:52:25.374Z,13.20
2018-10-11T22:57:28.400Z,13.10
2018-10-11T23:02:31.403Z,13.10
2018-10-11T23:07:34.569Z,13.10
2018-10-11T23:12:37.522Z,13.10
2018-10-11T23:17:40.849Z,13.10
2018-10-11T23:22:43.816Z,12.90
2018-10-11T23:27:46.777Z,12.60
2018-10-11T23:32:49.813Z,12.50
2018-10-11T23:37:52.798Z,12.50
2018-10-11T23:42:55.811Z,12.60
2018-10-11T23:47:58.845Z,12.60
2018-10-11T23:53:03.659Z,12.60
2018-10-11T23:58:06.598Z,12.70
